createdAt,value
2022-10-07T00:00:51.525Z,1.45
2022-10-07T00:03:19.843Z,1.20
2022-10-07T00:05:47.254Z,1.98
2022-10-07T00:08:14.640Z,1.55
2022-10-07T00:10:43.265Z,1.70
2022-10-07T00:13:12.273Z,1.60
2022-10-07T00:15:39.999Z,1.55
2022-10-07T00:18:07.310Z,1.55
2022-10-07T00:20:40.934Z,1.70
2022-10-07T00:23:09.470Z,1.83
2022-10-07T00:25:40.225Z,1.30
2022-10-07T00:28:07.289Z,2.05
2022-10-07T00:30:34.753Z,1.73
2022-10-07T00:33:02.147Z,1.85
2022-10-07T00:35:29.390Z,1.60
2022-10-07T00:37:56.685Z,1.80
2022-10-07T00:40:23.715Z,1.63
2022-10-07T00:42:50.972Z,2.00
2022-10-07T00:45:21.527Z,1.60
2022-10-07T00:47:51.026Z,1.85
2022-10-07T00:50:21.420Z,1.55
2022-10-07T00:52:52.350Z,1.15
2022-10-07T00:55:22.142Z,1.42
2022-10-07T00:57:50.431Z,1.33
2022-10-07T01:00:17.872Z,1.60
2022-10-07T01:02:45.318Z,1.38
2022-10-07T01:05:14.219Z,1.60
2022-10-07T01:07:44.608Z,1.65
2022-10-07T01:10:12.450Z,1.25
2022-10-07T01:12:51.935Z,1.30
2022-10-07T01:15:24.824Z,1.55
2022-10-07T01:18:03.378Z,1.52
2022-10-07T01:20:30.672Z,1.40
2022-10-07T01:23:01.944Z,1.35
2022-10-07T01:25:49.704Z,1.50
2022-10-07T01:30:48.041Z,1.05
2022-10-07T01:33:18.342Z,1.23
2022-10-07T01:35:48.613Z,1.45
2022-10-07T01:38:18.659Z,1.55
2022-10-07T01:40:54.285Z,1.20
2022-10-07T01:43:22.504Z,1.10
2022-10-07T01:45:52.277Z,1.20
2022-10-07T01:48:19.646Z,1.48
2022-10-07T01:50:48.005Z,1.52
2022-10-07T01:53:26.645Z,1.52
2022-10-07T01:56:00.739Z,1.27
2022-10-07T01:58:28.134Z,1.27
2022-10-07T02:01:18.758Z,1.55
2022-10-07T02:03:46.261Z,1.25
2022-10-07T02:06:14.363Z,1.50
2022-10-07T02:08:51.374Z,1.48
2022-10-07T02:11:27.435Z,1.25
2022-10-07T02:14:14.698Z,1.30
2022-10-07T02:16:43.757Z,1.30
2022-10-07T02:19:15.485Z,1.50
2022-10-07T02:21:44.232Z,1.35
2022-10-07T02:24:12.582Z,1.17
2022-10-07T02:26:41.707Z,1.05
2022-10-07T02:29:11.382Z,1.33
2022-10-07T02:31:41.762Z,1.10
2022-10-07T02:34:13.325Z,1.30
2022-10-07T02:36:58.688Z,0.93
2022-10-07T02:39:29.113Z,1.38
2022-10-07T02:42:01.308Z,1.33
2022-10-07T02:44:36.241Z,1.50
2022-10-07T02:47:09.526Z,1.40
2022-10-07T02:49:38.984Z,1.38
2022-10-07T02:52:08.110Z,1.70
2022-10-07T02:54:38.458Z,1.30
2022-10-07T02:57:06.488Z,1.38
2022-10-07T02:59:35.156Z,1.30
2022-10-07T03:02:03.488Z,1.40
2022-10-07T03:04:32.176Z,1.65
2022-10-07T03:07:01.131Z,1.30
2022-10-07T03:09:29.539Z,1.30
2022-10-07T03:11:56.775Z,1.30
2022-10-07T03:14:25.537Z,1.30
2022-10-07T03:16:53.418Z,1.45
2022-10-07T03:19:21.449Z,1.30
2022-10-07T03:21:56.933Z,1.40
2022-10-07T03:24:24.603Z,1.20
2022-10-07T03:26:51.925Z,1.40
2022-10-07T03:29:19.756Z,1.63
2022-10-07T03:31:47.061Z,1.10
2022-10-07T03:34:14.283Z,1.42
2022-10-07T03:36:43.574Z,1.33
2022-10-07T03:39:11.724Z,1.38
2022-10-07T03:41:38.939Z,1.33
2022-10-07T03:44:06.446Z,1.48
2022-10-07T03:46:33.918Z,1.33
2022-10-07T03:49:01.868Z,1.55
2022-10-07T03:51:29.685Z,1.70
2022-10-07T03:53:57.452Z,1.60
2022-10-07T03:56:27.239Z,1.58
2022-10-07T03:58:55.482Z,1.50
2022-10-07T04:01:23.687Z,1.80
2022-10-07T04:03:55.840Z,1.58
2022-10-07T04:06:24.015Z,1.45
2022-10-07T04:08:57.879Z,1.38
2022-10-07T04:11:25.183Z,1.60
2022-10-07T04:13:55.704Z,1.80
2022-10-07T04:16:25.643Z,1.38
2022-10-07T04:18:56.576Z,1.70
2022-10-07T04:21:25.396Z,1.92
2022-10-07T04:23:53.050Z,1.38
2022-10-07T04:26:20.768Z,1.73
2022-10-07T04:28:49.148Z,1.90
2022-10-07T04:31:19.790Z,1.65
2022-10-07T04:33:51.759Z,1.48
2022-10-07T04:36:24.949Z,1.60
2022-10-07T04:38:59.552Z,1.08
2022-10-07T04:41:31.420Z,1.88
2022-10-07T04:43:58.759Z,1.30
2022-10-07T04:46:30.168Z,1.30
2022-10-07T04:49:02.527Z,1.40
2022-10-07T04:51:31.118Z,1.80
2022-10-07T04:53:59.868Z,1.63
2022-10-07T04:56:35.890Z,1.42
2022-10-07T04:59:06.211Z,1.48
2022-10-07T05:01:33.986Z,2.30
2022-10-07T05:04:01.220Z,1.70
2022-10-07T05:06:29.602Z,1.50
2022-10-07T05:08:56.817Z,1.42
2022-10-07T05:11:25.952Z,1.67
2022-10-07T05:14:02.111Z,1.40
2022-10-07T05:16:30.965Z,2.00
2022-10-07T05:18:58.943Z,1.70
2022-10-07T05:21:26.230Z,2.03
2022-10-07T05:23:53.739Z,2.10
2022-10-07T05:26:26.112Z,2.40
2022-10-07T05:28:57.981Z,2.60
2022-10-07T05:31:31.829Z,2.10
2022-10-07T05:34:02.318Z,2.28
2022-10-07T05:36:30.018Z,2.05
2022-10-07T05:38:59.722Z,2.30
2022-10-07T05:44:13.987Z,2.22
2022-10-07T05:46:42.081Z,2.55
2022-10-07T05:49:09.258Z,2.30
2022-10-07T05:51:37.218Z,2.67
2022-10-07T05:54:04.889Z,2.22
2022-10-07T05:56:37.120Z,2.40
2022-10-07T05:59:04.956Z,1.80
2022-10-07T06:01:32.494Z,1.95
2022-10-07T06:04:07.965Z,2.00
2022-10-07T06:06:38.601Z,1.98
2022-10-07T06:09:27.739Z,1.80
2022-10-07T06:12:15.119Z,2.20
2022-10-07T06:14:43.198Z,2.03
2022-10-07T06:17:11.270Z,2.15
2022-10-07T06:19:40.271Z,2.25
2022-10-07T06:22:09.215Z,1.67
2022-10-07T06:24:38.140Z,1.90
2022-10-07T06:27:07.237Z,2.47
2022-10-07T06:29:35.513Z,2.35
2022-10-07T06:32:02.924Z,2.33
2022-10-07T06:34:30.837Z,2.33
2022-10-07T06:36:58.402Z,1.80
2022-10-07T06:39:26.346Z,2.28
2022-10-07T06:41:54.672Z,2.00
2022-10-07T06:44:32.676Z,2.20
2022-10-07T06:47:00.936Z,2.10
2022-10-07T06:49:27.786Z,2.53
2022-10-07T06:51:55.079Z,2.33
2022-10-07T06:54:22.467Z,2.30
2022-10-07T06:56:49.764Z,2.28
2022-10-07T06:59:17.592Z,3.05
2022-10-07T07:01:53.202Z,2.20
2022-10-07T07:04:20.862Z,2.45
2022-10-07T07:06:48.229Z,2.22
2022-10-07T07:09:15.748Z,2.08
2022-10-07T07:11:45.470Z,2.88
2022-10-07T07:14:18.661Z,1.90
2022-10-07T07:16:53.389Z,1.90
2022-10-07T07:19:22.251Z,3.17
2022-10-07T07:21:51.336Z,2.90
2022-10-07T07:24:20.977Z,2.60
2022-10-07T07:26:49.022Z,3.08
2022-10-07T07:29:16.702Z,3.08
2022-10-07T07:31:51.091Z,2.58
2022-10-07T07:34:20.894Z,2.60
2022-10-07T07:36:51.164Z,2.88
2022-10-07T07:39:19.843Z,2.97
2022-10-07T07:41:54.038Z,2.45
2022-10-07T07:44:23.696Z,2.42
2022-10-07T07:46:54.313Z,2.97
2022-10-07T07:49:24.040Z,2.80
2022-10-07T07:51:52.420Z,2.38
2022-10-07T07:54:29.671Z,2.78
2022-10-07T07:56:58.174Z,2.75
2022-10-07T07:59:28.691Z,2.08
2022-10-07T08:01:57.794Z,2.40
2022-10-07T08:04:25.972Z,2.80
2022-10-07T08:06:55.580Z,2.42
2022-10-07T08:09:24.441Z,2.40
2022-10-07T08:11:53.097Z,2.50
2022-10-07T08:14:20.379Z,2.60
2022-10-07T08:16:50.550Z,2.30
2022-10-07T08:19:17.985Z,2.08
2022-10-07T08:21:45.308Z,2.50
2022-10-07T08:24:17.511Z,2.75
2022-10-07T08:26:45.361Z,2.03
2022-10-07T08:29:15.234Z,2.58
2022-10-07T08:31:42.697Z,2.80
2022-10-07T08:34:11.469Z,2.58
2022-10-07T08:36:39.258Z,2.28
2022-10-07T08:39:07.115Z,2.40
2022-10-07T08:41:46.473Z,3.13
2022-10-07T08:44:16.530Z,2.60
2022-10-07T08:47:02.854Z,2.45
2022-10-07T08:49:48.559Z,2.35
2022-10-07T08:52:25.637Z,2.53
2022-10-07T08:54:53.359Z,2.30
2022-10-07T08:57:32.208Z,2.58
2022-10-07T09:00:02.790Z,2.25
2022-10-07T09:03:02.980Z,2.35
2022-10-07T09:05:38.991Z,2.58
2022-10-07T09:08:11.601Z,2.53
2022-10-07T09:10:53.398Z,2.42
2022-10-07T09:13:22.166Z,2.45
2022-10-07T09:16:12.260Z,2.03
2022-10-07T09:19:00.526Z,2.78
2022-10-07T09:21:36.729Z,2.60
2022-10-07T09:26:31.219Z,2.15
2022-10-07T09:28:59.624Z,2.55
2022-10-07T09:31:26.913Z,3.05
2022-10-07T09:33:54.346Z,2.88
2022-10-07T09:36:21.668Z,2.65
2022-10-07T09:38:50.380Z,2.92
2022-10-07T09:41:17.659Z,2.20
2022-10-07T09:44:14.713Z,3.05
2022-10-07T09:49:26.787Z,3.17
2022-10-07T09:52:00.045Z,2.45
2022-10-07T09:54:28.076Z,2.67
2022-10-07T09:56:59.529Z,2.95
2022-10-07T09:59:29.766Z,2.70
2022-10-07T10:01:59.869Z,2.83
2022-10-07T10:04:40.280Z,2.88
2022-10-07T10:07:17.415Z,2.53
2022-10-07T10:09:52.397Z,2.70
2022-10-07T10:12:21.147Z,3.00
2022-10-07T10:14:55.756Z,2.83
2022-10-07T10:17:28.988Z,2.97
2022-10-07T10:19:56.625Z,2.70
2022-10-07T10:22:29.853Z,2.70
2022-10-07T10:25:16.108Z,2.28
2022-10-07T10:27:46.420Z,2.28
2022-10-07T10:30:20.128Z,2.65
2022-10-07T10:33:01.081Z,2.90
2022-10-07T10:35:41.697Z,2.38
2022-10-07T10:38:12.439Z,2.30
2022-10-07T10:40:44.934Z,2.17
2022-10-07T10:43:27.219Z,2.53
2022-10-07T10:46:00.722Z,2.30
2022-10-07T10:48:36.739Z,2.10
2022-10-07T10:54:03.993Z,1.90
2022-10-07T10:56:54.977Z,1.80
2022-10-07T10:59:34.064Z,1.77
2022-10-07T11:02:14.598Z,2.28
2022-10-07T11:04:41.814Z,2.08
2022-10-07T11:07:28.667Z,2.15
2022-10-07T11:09:59.454Z,1.45
2022-10-07T11:12:29.942Z,1.73
2022-10-07T11:15:08.062Z,2.20
2022-10-07T11:17:38.444Z,1.58
2022-10-07T11:20:18.079Z,2.00
2022-10-07T11:22:56.670Z,1.98
2022-10-07T11:25:43.469Z,1.75
2022-10-07T11:28:26.693Z,1.70
2022-10-07T11:30:58.766Z,2.15
2022-10-07T11:33:38.649Z,1.83
2022-10-07T11:36:18.975Z,1.77
2022-10-07T11:38:46.846Z,2.08
2022-10-07T11:41:34.309Z,2.00
2022-10-07T11:44:09.694Z,2.45
2022-10-07T11:46:45.178Z,1.77
2022-10-07T11:49:12.422Z,1.98
2022-10-07T11:52:08.880Z,2.05
2022-10-07T11:54:59.449Z,1.67
2022-10-07T11:57:31.210Z,1.70
2022-10-07T12:00:06.034Z,2.03
2022-10-07T12:02:41.623Z,2.38
2022-10-07T12:05:34.413Z,1.98
2022-10-07T12:08:03.783Z,1.73
2022-10-07T12:10:32.269Z,1.75
2022-10-07T12:13:00.680Z,2.28
2022-10-07T12:15:30.660Z,1.50
2022-10-07T12:18:07.067Z,1.80
2022-10-07T12:20:53.071Z,1.50
2022-10-07T12:23:20.606Z,1.80
2022-10-07T12:25:51.336Z,1.42
2022-10-07T12:28:40.079Z,1.73
2022-10-07T12:31:27.707Z,1.60
2022-10-07T12:33:59.414Z,1.50
2022-10-07T12:36:27.842Z,1.40
2022-10-07T12:38:59.546Z,1.40
2022-10-07T12:41:39.664Z,1.55
2022-10-07T12:44:10.808Z,1.63
2022-10-07T12:46:37.996Z,1.30
2022-10-07T12:49:23.279Z,1.52
2022-10-07T12:51:53.734Z,1.25
2022-10-07T12:54:49.500Z,1.40
2022-10-07T12:57:40.782Z,1.33
2022-10-07T13:00:24.379Z,1.05
2022-10-07T13:03:09.426Z,1.40
2022-10-07T13:05:36.817Z,1.38
2022-10-07T13:08:41.793Z,1.85
2022-10-07T13:11:11.309Z,1.90
2022-10-07T13:13:41.113Z,1.40
2022-10-07T13:16:36.814Z,1.55
2022-10-07T13:19:46.915Z,1.30
2022-10-07T13:22:18.555Z,1.50
2022-10-07T13:25:01.258Z,1.83
2022-10-07T13:27:34.699Z,1.35
2022-10-07T13:30:04.301Z,1.65
2022-10-07T13:32:34.617Z,1.60
2022-10-07T13:35:33.181Z,1.13
2022-10-07T13:38:01.921Z,1.10
2022-10-07T13:40:35.331Z,1.27
2022-10-07T13:43:07.015Z,1.38
2022-10-07T13:45:45.215Z,1.42
2022-10-07T13:48:25.239Z,1.90
2022-10-07T13:50:55.827Z,1.27
2022-10-07T13:53:37.177Z,1.42
2022-10-07T13:56:06.344Z,2.05
2022-10-07T13:58:33.873Z,1.40
2022-10-07T14:01:07.834Z,1.25
2022-10-07T14:03:35.322Z,1.42
2022-10-07T14:06:02.273Z,1.50
2022-10-07T14:08:30.459Z,1.35
2022-10-07T14:11:21.265Z,1.50
2022-10-07T14:13:48.569Z,1.30
2022-10-07T14:16:23.113Z,2.42
2022-10-07T14:18:50.707Z,1.45
2022-10-07T14:21:18.904Z,1.40
2022-10-07T14:23:49.336Z,1.30
2022-10-07T14:26:17.677Z,1.15
2022-10-07T14:28:46.133Z,1.73
2022-10-07T14:31:34.435Z,1.50
2022-10-07T14:34:39.908Z,1.80
2022-10-07T14:37:10.351Z,1.85
2022-10-07T14:39:37.608Z,1.35
2022-10-07T14:42:10.809Z,1.25
2022-10-07T14:44:38.263Z,1.73
2022-10-07T14:47:17.022Z,1.65
2022-10-07T14:49:44.617Z,1.42
2022-10-07T14:52:23.355Z,1.35
2022-10-07T14:54:57.712Z,2.00
2022-10-07T14:57:27.651Z,1.10
2022-10-07T14:59:55.322Z,1.50
2022-10-07T15:02:22.844Z,1.65
2022-10-07T15:04:50.190Z,1.45
2022-10-07T15:07:17.820Z,1.27
2022-10-07T15:09:46.126Z,1.40
2022-10-07T15:12:15.144Z,1.50
2022-10-07T15:14:42.485Z,1.58
2022-10-07T15:17:12.466Z,1.75
2022-10-07T15:19:39.367Z,1.70
2022-10-07T15:22:06.651Z,1.70
2022-10-07T15:24:34.231Z,1.90
2022-10-07T15:27:01.589Z,1.80
2022-10-07T15:29:28.976Z,2.25
2022-10-07T15:31:56.244Z,2.30
2022-10-07T15:34:23.502Z,5.22
2022-10-07T15:36:50.723Z,3.80
2022-10-07T15:39:17.569Z,1.90
2022-10-07T15:41:44.741Z,14.68
2022-10-07T15:44:20.023Z,5.47
2022-10-07T15:46:48.476Z,3.35
2022-10-07T15:49:19.036Z,7.75
2022-10-07T15:51:46.782Z,11.23
2022-10-07T15:54:14.089Z,10.27
2022-10-07T15:56:42.732Z,5.13
2022-10-07T15:59:09.970Z,3.20
2022-10-07T16:01:37.493Z,2.40
2022-10-07T16:04:05.997Z,2.55
2022-10-07T16:06:35.703Z,2.70
2022-10-07T16:09:03.247Z,2.47
2022-10-07T16:11:32.989Z,2.70
2022-10-07T16:14:02.066Z,2.00
2022-10-07T16:16:33.665Z,1.92
2022-10-07T16:19:01.211Z,1.63
2022-10-07T16:21:31.095Z,1.67
2022-10-07T16:24:02.823Z,1.77
2022-10-07T16:26:30.806Z,1.83
2022-10-07T16:29:18.178Z,1.50
2022-10-07T16:31:46.692Z,2.13
2022-10-07T16:34:15.545Z,1.92
2022-10-07T16:36:45.682Z,2.00
2022-10-07T16:39:12.978Z,2.42
2022-10-07T16:41:41.664Z,2.17
2022-10-07T16:44:09.166Z,2.22
2022-10-07T16:46:36.934Z,1.90
2022-10-07T16:49:08.516Z,1.75
2022-10-07T16:51:37.089Z,1.50
2022-10-07T16:54:12.796Z,1.88
2022-10-07T16:56:42.153Z,1.60
2022-10-07T16:59:11.903Z,1.90
2022-10-07T17:01:40.071Z,1.25
2022-10-07T17:04:08.447Z,2.00
2022-10-07T17:06:36.797Z,2.70
2022-10-07T17:09:04.658Z,2.20
2022-10-07T17:11:36.283Z,2.40
2022-10-07T17:14:18.342Z,2.50
2022-10-07T17:16:50.117Z,1.80
2022-10-07T17:19:22.776Z,2.15
2022-10-07T17:21:51.057Z,2.42
2022-10-07T17:24:19.479Z,2.08
2022-10-07T17:26:46.812Z,2.20
2022-10-07T17:29:18.353Z,3.05
2022-10-07T17:31:51.335Z,3.30
2022-10-07T17:34:20.577Z,3.60
2022-10-07T17:36:48.140Z,2.85
2022-10-07T17:39:15.679Z,2.80
2022-10-07T17:41:43.247Z,2.67
2022-10-07T17:44:12.657Z,2.97
2022-10-07T17:46:41.248Z,2.53
2022-10-07T17:49:13.470Z,2.10
2022-10-07T17:51:42.725Z,1.80
2022-10-07T17:54:12.093Z,2.45
2022-10-07T17:56:39.461Z,1.70
2022-10-07T17:59:06.734Z,2.47
2022-10-07T18:01:35.110Z,2.45
2022-10-07T18:04:04.832Z,2.53
2022-10-07T18:06:34.438Z,3.00
2022-10-07T18:09:05.149Z,4.45
2022-10-07T18:12:11.510Z,4.18
2022-10-07T18:14:57.546Z,4.18
2022-10-07T18:17:25.110Z,3.72
2022-10-07T18:19:52.458Z,3.25
2022-10-07T18:22:19.715Z,4.63
2022-10-07T18:24:46.707Z,4.70
2022-10-07T18:27:13.737Z,4.05
2022-10-07T18:29:41.025Z,3.15
2022-10-07T18:32:08.529Z,3.33
2022-10-07T18:34:35.632Z,3.35
2022-10-07T18:37:02.864Z,3.35
2022-10-07T18:39:30.108Z,3.35
2022-10-07T18:41:58.186Z,2.85
2022-10-07T18:44:25.891Z,3.38
2022-10-07T18:47:18.999Z,2.97
2022-10-07T18:49:46.062Z,3.30
2022-10-07T18:52:13.143Z,2.75
2022-10-07T18:54:40.142Z,3.35
2022-10-07T18:57:07.174Z,3.03
2022-10-07T18:59:34.263Z,3.17
2022-10-07T19:02:01.392Z,3.28
2022-10-07T19:04:31.032Z,3.33
2022-10-07T19:06:58.513Z,3.03
2022-10-07T19:09:26.609Z,3.10
2022-10-07T19:11:53.738Z,3.50
2022-10-07T19:14:20.924Z,2.70
2022-10-07T19:16:49.797Z,2.65
2022-10-07T19:19:26.462Z,2.67
2022-10-07T19:21:55.121Z,2.78
2022-10-07T19:24:45.605Z,2.80
2022-10-07T19:27:12.412Z,3.03
2022-10-07T19:29:39.360Z,2.90
2022-10-07T19:32:08.650Z,2.30
2022-10-07T19:34:36.324Z,2.42
2022-10-07T19:37:03.496Z,2.30
2022-10-07T19:39:30.241Z,2.67
2022-10-07T19:41:57.399Z,2.78
2022-10-07T19:44:24.368Z,2.70
2022-10-07T19:46:52.387Z,2.92
2022-10-07T19:49:19.147Z,2.15
2022-10-07T19:51:45.939Z,2.90
2022-10-07T19:54:13.125Z,3.00
2022-10-07T19:56:40.766Z,3.17
2022-10-07T19:59:13.181Z,3.45
2022-10-07T20:01:43.271Z,3.67
2022-10-07T20:04:13.852Z,2.63
2022-10-07T20:06:42.072Z,2.80
2022-10-07T20:09:12.087Z,2.67
2022-10-07T20:11:39.452Z,3.35
2022-10-07T20:14:06.689Z,3.50
2022-10-07T20:16:34.506Z,2.42
2022-10-07T20:19:06.866Z,2.70
2022-10-07T20:21:36.250Z,2.50
2022-10-07T20:24:04.149Z,2.80
2022-10-07T20:26:34.318Z,2.75
2022-10-07T20:29:03.389Z,2.33
2022-10-07T20:31:35.904Z,2.85
2022-10-07T20:34:03.098Z,2.42
2022-10-07T20:36:32.801Z,2.47
2022-10-07T20:39:21.850Z,2.63
2022-10-07T20:42:08.633Z,2.90
2022-10-07T20:44:38.623Z,3.00
2022-10-07T20:47:07.673Z,2.83
2022-10-07T20:49:35.204Z,2.75
2022-10-07T20:52:05.593Z,3.08
2022-10-07T20:54:33.189Z,2.63
2022-10-07T20:57:00.774Z,3.08
2022-10-07T20:59:29.280Z,3.00
2022-10-07T21:01:57.184Z,2.95
2022-10-07T21:04:28.641Z,2.85
2022-10-07T21:06:56.877Z,3.30
2022-10-07T21:09:24.537Z,3.72
2022-10-07T21:11:52.643Z,3.90
2022-10-07T21:14:20.114Z,3.30
2022-10-07T21:16:47.839Z,3.63
2022-10-07T21:19:15.632Z,4.65
2022-10-07T21:21:42.438Z,4.38
2022-10-07T21:24:09.283Z,4.38
2022-10-07T21:26:36.760Z,4.82
2022-10-07T21:29:09.221Z,4.80
2022-10-07T21:31:36.091Z,4.95
2022-10-07T21:34:07.829Z,4.95
2022-10-07T21:36:37.905Z,5.50
2022-10-07T21:39:05.613Z,6.38
2022-10-07T21:41:35.155Z,5.45
2022-10-07T21:44:04.503Z,5.00
2022-10-07T21:46:32.715Z,4.32
2022-10-07T21:48:59.785Z,4.28
2022-10-07T21:51:27.389Z,3.85
2022-10-07T21:53:55.033Z,3.90
2022-10-07T21:56:21.874Z,4.45
2022-10-07T21:58:53.193Z,4.53
2022-10-07T22:01:24.551Z,4.43
2022-10-07T22:03:56.064Z,4.10
2022-10-07T22:06:43.805Z,4.43
2022-10-07T22:09:12.145Z,4.25
2022-10-07T22:11:38.992Z,3.72
2022-10-07T22:14:11.383Z,4.13
2022-10-07T22:16:39.263Z,4.45
2022-10-07T22:19:06.423Z,3.53
2022-10-07T22:21:35.699Z,3.72
2022-10-07T22:24:04.884Z,3.72
2022-10-07T22:26:35.286Z,3.50
2022-10-07T22:29:02.118Z,3.63
2022-10-07T22:31:30.283Z,3.38
2022-10-07T22:33:59.329Z,3.72
2022-10-07T22:36:28.189Z,3.40
2022-10-07T22:38:56.760Z,3.60
2022-10-07T22:41:24.582Z,3.63
2022-10-07T22:43:53.130Z,4.35
2022-10-07T22:46:27.173Z,4.13
2022-10-07T22:48:58.182Z,3.85
2022-10-07T22:51:28.552Z,3.58
2022-10-07T22:53:56.551Z,3.45
2022-10-07T22:56:24.988Z,2.70
2022-10-07T22:58:54.585Z,3.47
2022-10-07T23:01:22.075Z,2.92
2022-10-07T23:03:49.107Z,2.92
2022-10-07T23:06:19.277Z,2.60
2022-10-07T23:08:47.191Z,2.45
2022-10-07T23:11:17.116Z,2.92
2022-10-07T23:13:44.774Z,3.50
2022-10-07T23:16:15.679Z,2.70
2022-10-07T23:18:44.986Z,2.70
2022-10-07T23:21:21.251Z,3.10
2022-10-07T23:23:51.870Z,3.50
2022-10-07T23:26:24.048Z,3.15
2022-10-07T23:28:52.459Z,3.40
2022-10-07T23:31:21.030Z,3.40
2022-10-07T23:33:50.048Z,3.30
2022-10-07T23:36:20.076Z,3.38
2022-10-07T23:38:47.879Z,3.53
2022-10-07T23:41:17.328Z,3.45
2022-10-07T23:43:44.156Z,3.38
2022-10-07T23:46:13.346Z,4.03
2022-10-07T23:48:41.678Z,3.50
2022-10-07T23:51:11.532Z,3.67
2022-10-07T23:53:39.015Z,4.13
2022-10-07T23:56:06.346Z,3.28
2022-10-07T23:58:34.029Z,3.35
